Time;durP1;ratioP1;P1;durP2;ratioP2;P2;SDS_P1;SDS_P2;PMS_P1;PMS_P2;Temp;Humidity;BMP_temperature;BMP_pressure;BME280_temperature;BME280_humidity;BME280_pressure;Samples;Min_cycle;Max_cycle;Signal;HPM_P1;HPM_P2
2023/06/18 21:12:34;;;;;;;11.88;9.38;;;;;;;21.27;76.07;100723.38;5030810;23;20079;-92
2023/06/18 21:21:45;;;;;;;17.23;10.07;;;;;;;21.20;77.51;100712.19;4902841;29;20704;-90
2023/06/18 21:28:26;;;;;;;15.25;9.75;;;;;;;21.13;73.58;100677.31;4904541;29;20109;-94
2023/06/18 21:31:42;;;;;;;12.07;9.27;;;;;;;21.12;72.60;100672.22;4823962;29;20042;-92
2023/06/18 21:34:24;;;;;;;11.65;8.60;;;;;;;21.27;70.68;100685.22;4819799;29;20120;-94
2023/06/18 21:39:39;;;;;;;15.40;8.88;;;;;;;21.35;69.20;100688.22;5015923;23;20056;-87
2023/06/18 21:42:05;;;;;;;15.43;9.03;;;;;;;21.41;69.64;100698.56;4914126;29;20040;-86
2023/06/18 21:44:30;;;;;;;12.05;8.85;;;;;;;21.39;68.18;100698.09;4915273;29;20024;-86
2023/06/18 21:46:55;;;;;;;15.20;9.37;;;;;;;21.40;66.48;100694.25;4894659;29;20450;-86
2023/06/18 21:49:21;;;;;;;11.40;8.13;;;;;;;21.36;66.73;100687.88;4902289;29;20096;-86
2023/06/18 21:51:48;;;;;;;13.13;9.03;;;;;;;21.37;68.16;100694.09;4917590;29;20395;-87
2023/06/18 21:54:13;;;;;;;11.57;8.77;;;;;;;21.35;65.62;100680.03;4910455;29;20483;-87
2023/06/18 21:56:38;;;;;;;9.77;8.13;;;;;;;21.29;65.10;100666.63;4898460;29;20112;-87
2023/06/18 21:59:03;;;;;;;13.00;8.35;;;;;;;21.32;65.34;100660.50;4885851;29;20029;-85
2023/06/18 22:01:29;;;;;;;15.03;8.37;;;;;;;21.32;65.10;100633.25;4896665;29;20075;-88
2023/06/18 22:03:55;;;;;;;9.30;8.23;;;;;;;21.36;65.54;100633.38;4899807;29;20541;-90
2023/06/18 22:06:21;;;;;;;11.13;8.18;;;;;;;21.37;63.42;100617.81;4892641;29;20059;-91
2023/06/18 22:08:49;;;;;;;11.67;8.57;;;;;;;21.36;65.77;100627.13;4895276;29;20480;-87
2023/06/18 22:11:15;;;;;;;12.93;8.15;;;;;;;21.33;65.03;100636.75;4896700;29;20627;-88
2023/06/18 22:13:41;;;;;;;9.60;8.32;;;;;;;21.27;66.03;100646.31;4897450;29;20033;-88
2023/06/18 22:16:06;;;;;;;12.13;9.10;;;;;;;21.17;66.15;100645.56;4895018;29;20052;-88
2023/06/18 22:18:31;;;;;;;14.90;8.07;;;;;;;21.12;66.25;100643.03;4894028;29;20445;-84
2023/06/18 22:20:57;;;;;;;10.83;8.30;;;;;;;21.11;65.06;100641.44;4894366;29;20041;-86
2023/06/18 22:23:22;;;;;;;12.80;8.83;;;;;;;21.09;66.11;100640.19;4904548;29;20028;-86
2023/06/18 22:25:48;;;;;;;13.57;8.63;;;;;;;21.08;65.53;100639.41;4895333;29;20440;-86
2023/06/18 22:28:15;;;;;;;12.35;7.90;;;;;;;21.11;66.17;100643.38;4899047;29;20024;-86
2023/06/18 22:30:41;;;;;;;12.27;8.93;;;;;;;21.12;65.95;100636.81;4922665;29;20032;-87
2023/06/18 22:33:06;;;;;;;13.75;8.65;;;;;;;21.14;66.30;100626.38;4904813;29;20084;-86
2023/06/18 22:35:31;;;;;;;11.47;8.77;;;;;;;21.18;66.26;100646.38;4894232;29;20043;-85
2023/06/18 22:37:57;;;;;;;9.10;7.90;;;;;;;21.16;67.14;100649.41;4895768;29;20123;-85
2023/06/18 22:40:25;;;;;;;12.77;8.33;;;;;;;21.11;68.34;100665.19;4895042;29;20028;-86
2023/06/18 22:42:54;;;;;;;11.23;8.38;;;;;;;21.05;67.75;100666.50;4895589;29;20029;-86
2023/06/18 22:45:20;;;;;;;10.10;8.48;;;;;;;21.00;68.31;100671.00;4910358;29;20107;-87
2023/06/18 22:47:46;;;;;;;12.50;8.40;;;;;;;20.97;68.37;100662.72;4901733;29;20091;-87
2023/06/18 22:50:12;;;;;;;9.93;8.17;;;;;;;20.96;69.29;100672.84;4886923;29;20052;-87
2023/06/18 22:52:37;;;;;;;14.02;8.60;;;;;;;20.95;69.97;100665.78;4893179;29;20476;-86
2023/06/18 22:55:03;;;;;;;8.97;7.77;;;;;;;20.91;70.04;100664.84;4893487;29;20052;-86
2023/06/18 22:57:29;;;;;;;9.00;6.95;;;;;;;20.94;71.40;100666.91;4899683;29;20043;-86
2023/06/18 22:59:55;;;;;;;7.63;6.83;;;;;;;21.01;70.38;100660.94;4912697;29;20544;-86
2023/06/18 23:02:20;;;;;;;8.98;7.25;;;;;;;21.06;70.53;100662.66;4898692;29;20035;-85
2023/06/18 23:04:45;;;;;;;7.73;6.50;;;;;;;21.18;70.21;100679.06;4894726;29;20032;-85
2023/06/18 23:07:11;;;;;;;8.10;6.17;;;;;;;21.24;70.54;100675.00;4899299;29;20020;-84
2023/06/18 23:09:36;;;;;;;8.63;5.90;;;;;;;21.29;70.45;100665.81;4914501;29;20031;-85
2023/06/18 23:12:03;;;;;;;8.50;6.30;;;;;;;21.33;71.36;100680.38;4914459;29;20073;-85
2023/06/18 23:14:28;;;;;;;9.50;6.00;;;;;;;21.37;71.46;100678.56;4913716;29;20668;-85
2023/06/18 23:16:53;;;;;;;6.68;5.78;;;;;;;21.42;70.64;100674.81;4898105;29;20040;-86
2023/06/18 23:19:19;;;;;;;7.43;6.20;;;;;;;21.43;71.61;100687.31;4915307;29;20032;-85
2023/06/18 23:21:45;;;;;;;7.83;6.17;;;;;;;21.41;71.79;100684.94;4914202;29;20032;-85
2023/06/18 23:24:11;;;;;;;6.57;5.60;;;;;;;21.38;71.52;100679.34;4914473;29;20021;-85
2023/06/18 23:26:39;;;;;;;6.67;6.00;;;;;;;21.38;71.93;100685.63;4913358;29;20088;-85
2023/06/18 23:29:09;;;;;;;9.57;5.90;;;;;;;21.40;72.58;100690.72;4860740;29;20068;-86
2023/06/18 23:31:35;;;;;;;7.00;5.68;;;;;;;21.40;71.89;100688.00;4899742;29;20028;-85
2023/06/18 23:34:00;;;;;;;6.22;5.63;;;;;;;21.38;71.78;100684.81;4888810;29;20084;-86
2023/06/18 23:36:25;;;;;;;8.67;5.90;;;;;;;21.33;71.84;100685.81;4893994;29;20049;-85
2023/06/18 23:38:51;;;;;;;9.13;6.13;;;;;;;21.38;71.57;100688.34;4911853;29;20167;-85
2023/06/18 23:41:16;;;;;;;6.63;5.90;;;;;;;21.33;71.87;100694.81;4917419;29;20019;-85
2023/06/18 23:43:41;;;;;;;6.50;5.90;;;;;;;21.24;71.90;100685.88;4916048;29;20039;-85
2023/06/18 23:46:06;;;;;;;8.93;6.07;;;;;;;21.11;71.89;100687.75;4895496;29;20032;-85
2023/06/18 23:48:32;;;;;;;7.20;5.83;;;;;;;21.03;73.14;100685.91;4916514;29;20055;-85
2023/06/18 23:50:57;;;;;;;6.70;5.97;;;;;;;20.95;73.31;100684.84;4902072;29;20028;-85
2023/06/18 23:53:22;;;;;;;6.47;5.87;;;;;;;20.86;73.86;100682.19;4897401;29;20104;-85
2023/06/18 23:55:48;;;;;;;7.73;6.27;;;;;;;20.81;73.58;100685.09;4898186;29;20040;-85
2023/06/18 23:58:13;;;;;;;7.75;6.60;;;;;;;20.82;73.82;100685.88;4900433;29;20036;-84
